Time;durP1;ratioP1;P1;durP2;ratioP2;P2;SDS_P1;SDS_P2;PMS_P1;PMS_P2;Temp;Humidity;BMP_temperature;BMP_pressure;BME280_temperature;BME280_humidity;BME280_pressure;Samples;Min_cycle;Max_cycle;Signal;HPM_P1;HPM_P2
2023/09/13 00:01:14;;;;;;;8.35;3.88;;;;;;;;;;5015068;28;20287;-70
2023/09/13 00:03:40;;;;;;;10.00;4.03;;;;;;;;;;5015088;28;20118;-69
2023/09/13 00:06:05;;;;;;;14.33;4.00;;;;;;;;;;5015305;28;20632;-69
2023/09/13 00:08:30;;;;;;;8.00;3.57;;;;;;;;;;5015052;28;20033;-70
2023/09/13 00:11:04;;;;;;;6.97;3.17;;;;;;;;;;5014797;28;20310;-69
2023/09/13 00:13:31;;;;;;;8.63;3.30;;;;;;;;;;5013989;28;20740;-70
2023/09/13 00:15:56;;;;;;;11.40;3.65;;;;;;;;;;5014721;28;20028;-70
2023/09/13 00:18:21;;;;;;;5.50;3.20;;;;;;;;;;5014769;28;20038;-70
2023/09/13 00:20:46;;;;;;;6.47;3.43;;;;;;;;;;5014943;28;20265;-69
2023/09/13 00:23:11;;;;;;;7.90;3.27;;;;;;;;;;5014831;28;20089;-70
2023/09/13 00:25:36;;;;;;;8.00;3.30;;;;;;;;;;5014857;28;20257;-69
2023/09/13 00:28:02;;;;;;;7.23;3.33;;;;;;;;;;5014671;28;20017;-71
2023/09/13 00:30:27;;;;;;;7.95;3.30;;;;;;;;;;5013359;28;20025;-69
2023/09/13 00:32:52;;;;;;;9.07;3.40;;;;;;;;;;5014564;28;20560;-70
2023/09/13 00:35:18;;;;;;;6.13;3.30;;;;;;;;;;5013281;28;20033;-70
2023/09/13 00:37:43;;;;;;;7.60;3.37;;;;;;;;;;5014526;28;20018;-70
2023/09/13 00:40:08;;;;;;;6.80;3.57;;;;;;;;;;5014439;28;20260;-70
2023/09/13 00:42:34;;;;;;;9.15;3.50;;;;;;;;;;5014427;28;20310;-70
2023/09/13 00:44:59;;;;;;;5.00;3.50;;;;;;;;;;5014389;28;20040;-70
2023/09/13 00:47:24;;;;;;;6.77;3.70;;;;;;;;;;5014446;28;20323;-70
2023/09/13 00:49:49;;;;;;;11.60;3.83;;;;;;;;;;5014417;28;20465;-70
2023/09/13 00:52:15;;;;;;;10.43;3.72;;;;;;;;;;5014216;28;20029;-71
2023/09/13 00:54:40;;;;;;;9.25;3.80;;;;;;;;;;5014334;28;20139;-70
2023/09/13 00:57:06;;;;;;;5.77;3.70;;;;;;;;;;5012836;28;20028;-70
2023/09/13 00:59:31;;;;;;;7.28;4.03;;;;;;;;;;5014103;28;20257;-70
2023/09/13 01:01:57;;;;;;;6.10;3.90;;;;;;;;;;5013070;28;20029;-70
2023/09/13 01:04:22;;;;;;;8.43;3.53;;;;;;;;;;5014174;28;20021;-69
2023/09/13 01:06:47;;;;;;;8.15;3.70;;;;;;;;;;5014252;28;20022;-69
2023/09/13 01:09:14;;;;;;;6.85;3.80;;;;;;;;;;5012668;28;20104;-69
2023/09/13 01:11:40;;;;;;;6.22;3.75;;;;;;;;;;5013800;28;20093;-69
2023/09/13 01:14:05;;;;;;;7.45;3.70;;;;;;;;;;5013946;28;20076;-69
2023/09/13 01:16:50;;;;;;;10.37;3.70;;;;;;;;;;5013880;28;20022;-69
2023/09/13 01:19:18;;;;;;;6.00;3.45;;;;;;;;;;5012491;28;20305;-70
2023/09/13 01:22:04;;;;;;;13.52;3.83;;;;;;;;;;5013815;28;20010;-69
2023/09/13 01:24:30;;;;;;;10.40;3.80;;;;;;;;;;5013582;28;20018;-69
2023/09/13 01:27:14;;;;;;;6.35;3.72;;;;;;;;;;5012287;28;20501;-70
2023/09/13 01:29:40;;;;;;;6.80;3.97;;;;;;;;;;5013669;28;20076;-70
2023/09/13 01:32:05;;;;;;;6.68;3.83;;;;;;;;;;5013645;28;20026;-70
2023/09/13 01:34:31;;;;;;;6.75;3.78;;;;;;;;;;5012395;28;20363;-69
2023/09/13 01:36:56;;;;;;;6.13;3.72;;;;;;;;;;5013661;28;20367;-70
2023/09/13 01:39:22;;;;;;;5.75;3.80;;;;;;;;;;5012299;28;20024;-71
2023/09/13 01:41:50;;;;;;;5.80;4.05;;;;;;;;;;5013634;28;20025;-70
2023/09/13 01:44:16;;;;;;;6.80;3.50;;;;;;;;;;5012318;28;20104;-70
2023/09/13 01:46:42;;;;;;;9.30;4.32;;;;;;;;;;5013527;28;20053;-70
2023/09/13 01:49:08;;;;;;;6.38;4.03;;;;;;;;;;5012142;28;20474;-70
2023/09/13 01:51:33;;;;;;;7.13;3.75;;;;;;;;;;5012115;28;20028;-71
2023/09/13 01:53:59;;;;;;;6.88;3.85;;;;;;;;;;5013433;28;20052;-71
2023/09/13 01:56:24;;;;;;;6.33;3.80;;;;;;;;;;5013493;28;20069;-70
2023/09/13 01:58:50;;;;;;;5.90;3.88;;;;;;;;;;5013373;28;20288;-71
2023/09/13 02:01:15;;;;;;;7.80;3.70;;;;;;;;;;5012019;28;20105;-70
2023/09/13 02:03:41;;;;;;;9.43;4.10;;;;;;;;;;5013564;28;20421;-70
2023/09/13 02:06:06;;;;;;;8.48;3.90;;;;;;;;;;5013149;28;20021;-70
2023/09/13 02:08:32;;;;;;;6.20;3.97;;;;;;;;;;5012020;28;20053;-70
2023/09/13 02:10:57;;;;;;;10.07;3.70;;;;;;;;;;5011984;28;20022;-71
2023/09/13 02:13:22;;;;;;;6.93;3.90;;;;;;;;;;5012048;28;20022;-71
2023/09/13 02:15:47;;;;;;;5.87;4.23;;;;;;;;;;5013216;28;20330;-70
2023/09/13 02:18:12;;;;;;;7.70;3.90;;;;;;;;;;5012911;28;20050;-71
2023/09/13 02:20:38;;;;;;;7.43;3.60;;;;;;;;;;5013263;28;20269;-71
2023/09/13 02:23:03;;;;;;;7.17;4.00;;;;;;;;;;5011956;28;20022;-70
2023/09/13 02:25:28;;;;;;;10.35;4.20;;;;;;;;;;5014861;28;20339;-71
2023/09/13 02:27:53;;;;;;;6.73;4.10;;;;;;;;;;5013149;28;20025;-70
2023/09/13 02:30:18;;;;;;;7.85;3.92;;;;;;;;;;5013149;28;20260;-71
2023/09/13 02:32:44;;;;;;;9.07;4.63;;;;;;;;;;5011865;28;20176;-71
2023/09/13 02:35:09;;;;;;;9.67;4.07;;;;;;;;;;5010376;28;20033;-70
2023/09/13 02:37:34;;;;;;;9.68;3.90;;;;;;;;;;5014442;28;20284;-70
2023/09/13 02:39:59;;;;;;;8.70;4.27;;;;;;;;;;5016588;28;20025;-71
2023/09/13 02:42:25;;;;;;;10.07;4.50;;;;;;;;;;5015237;28;20268;-71
2023/09/13 02:44:50;;;;;;;9.45;4.68;;;;;;;;;;5016625;28;20022;-71
2023/09/13 02:47:16;;;;;;;9.60;4.47;;;;;;;;;;5016616;28;20022;-71
2023/09/13 02:49:41;;;;;;;8.07;4.23;;;;;;;;;;5015268;28;20029;-70
2023/09/13 02:52:06;;;;;;;6.20;4.53;;;;;;;;;;5016482;28;20281;-71
2023/09/13 02:54:31;;;;;;;8.40;4.60;;;;;;;;;;5016566;28;20265;-71
2023/09/13 02:56:57;;;;;;;12.23;5.03;;;;;;;;;;5016366;28;20273;-71
2023/09/13 02:59:22;;;;;;;6.77;4.87;;;;;;;;;;5016260;28;20509;-70
2023/09/13 03:01:48;;;;;;;9.13;6.05;;;;;;;;;;5016386;28;20400;-70
2023/09/13 03:04:13;;;;;;;11.93;6.40;;;;;;;;;;5016255;28;20381;-71
2023/09/13 03:06:41;;;;;;;10.53;6.67;;;;;;;;;;5014973;28;20029;-70
2023/09/13 03:09:06;;;;;;;18.98;7.72;;;;;;;;;;5016249;28;20057;-70
2023/09/13 03:11:31;;;;;;;33.65;9.65;;;;;;;;;;5016050;28;20014;-71
2023/09/13 03:13:57;;;;;;;69.40;11.33;;;;;;;;;;5014853;28;20068;-70
2023/09/13 03:16:22;;;;;;;61.92;11.63;;;;;;;;;;5016133;28;20309;-71
2023/09/13 03:18:48;;;;;;;56.65;10.55;;;;;;;;;;5015749;28;20121;-70
2023/09/13 03:21:14;;;;;;;18.98;11.00;;;;;;;;;;5015944;28;20014;-71
2023/09/13 03:23:43;;;;;;;72.38;11.57;;;;;;;;;;5016063;28;20104;-70
2023/09/13 03:26:11;;;;;;;36.22;10.85;;;;;;;;;;5014576;28;20544;-70
2023/09/13 03:28:36;;;;;;;51.55;11.18;;;;;;;;;;5015682;28;20025;-71
2023/09/13 03:31:01;;;;;;;79.13;11.37;;;;;;;;;;5015819;28;20018;-71
2023/09/13 03:33:27;;;;;;;23.70;10.87;;;;;;;;;;5015716;28;20550;-71
2023/09/13 03:35:52;;;;;;;25.77;10.57;;;;;;;;;;5015854;28;20167;-70
2023/09/13 03:38:18;;;;;;;27.65;11.30;;;;;;;;;;5014330;28;20389;-71
2023/09/13 03:40:43;;;;;;;19.80;11.47;;;;;;;;;;5015721;28;20026;-70
2023/09/13 03:43:08;;;;;;;20.00;11.23;;;;;;;;;;5015518;28;20010;-71
2023/09/13 03:45:33;;;;;;;23.05;10.88;;;;;;;;;;5014276;28;20284;-70
2023/09/13 03:47:58;;;;;;;17.07;10.43;;;;;;;;;;5015240;28;20107;-71
2023/09/13 03:50:23;;;;;;;16.90;10.83;;;;;;;;;;5015387;28;20359;-70
2023/09/13 03:52:49;;;;;;;16.23;11.03;;;;;;;;;;5015389;28;20462;-71
2023/09/13 03:55:14;;;;;;;15.97;10.60;;;;;;;;;;5014106;28;20014;-71
2023/09/13 03:57:39;;;;;;;17.43;10.07;;;;;;;;;;5014001;28;20049;-71
2023/09/13 04:00:12;;;;;;;18.52;10.48;;;;;;;;;;5013968;28;20033;-70
2023/09/13 04:02:37;;;;;;;16.25;9.63;;;;;;;;;;5015193;28;20072;-70
2023/09/13 04:05:03;;;;;;;16.33;9.90;;;;;;;;;;5015201;28;20018;-70
2023/09/13 04:07:28;;;;;;;15.77;9.57;;;;;;;;;;5015120;28;20325;-70
2023/09/13 04:09:54;;;;;;;13.50;9.40;;;;;;;;;;5015180;28;20100;-71
2023/09/13 04:12:19;;;;;;;15.50;9.80;;;;;;;;;;5015017;28;20675;-70
2023/09/13 04:14:44;;;;;;;15.80;10.17;;;;;;;;;;5014980;28;20083;-70
2023/09/13 04:17:09;;;;;;;17.03;9.47;;;;;;;;;;5014883;28;20020;-70
2023/09/13 04:19:34;;;;;;;16.27;10.57;;;;;;;;;;5013591;28;20028;-70
2023/09/13 04:21:59;;;;;;;21.20;11.40;;;;;;;;;;5014843;28;20076;-71
2023/09/13 04:24:25;;;;;;;18.90;11.30;;;;;;;;;;5013654;28;20488;-70
2023/09/13 04:26:50;;;;;;;20.67;11.93;;;;;;;;;;5014824;28;20026;-71
2023/09/13 04:29:15;;;;;;;24.17;13.37;;;;;;;;;;5013429;28;20806;-70
2023/09/13 04:31:40;;;;;;;22.33;13.65;;;;;;;;;;5013399;28;20022;-70
2023/09/13 04:34:05;;;;;;;24.60;14.27;;;;;;;;;;5015122;28;20022;-70
2023/09/13 04:36:30;;;;;;;23.60;14.37;;;;;;;;;;5023546;28;20299;-70
2023/09/13 04:38:56;;;;;;;19.83;14.10;;;;;;;;;;5039170;28;20095;-71
2023/09/13 04:41:21;;;;;;;26.90;15.75;;;;;;;;;;5038225;28;20265;-70
2023/09/13 04:43:46;;;;;;;27.52;15.50;;;;;;;;;;5038401;28;20014;-70
2023/09/13 04:46:11;;;;;;;26.20;16.50;;;;;;;;;;5035403;28;20006;-68
2023/09/13 04:48:37;;;;;;;28.67;17.20;;;;;;;;;;5015559;28;20323;-69
2023/09/13 04:51:04;;;;;;;33.33;17.83;;;;;;;;;;5022458;28;20030;-71
2023/09/13 04:53:29;;;;;;;31.42;17.55;;;;;;;;;;5014593;28;20030;-69
2023/09/13 04:55:54;;;;;;;31.95;18.17;;;;;;;;;;5014596;28;20403;-69
2023/09/13 04:58:20;;;;;;;28.98;17.20;;;;;;;;;;5014405;28;20458;-69
2023/09/13 05:00:45;;;;;;;31.27;18.67;;;;;;;;;;5016879;28;20010;-71
2023/09/13 05:03:10;;;;;;;30.80;18.17;;;;;;;;;;5015042;28;20257;-69
2023/09/13 05:05:35;;;;;;;32.60;19.67;;;;;;;;;;5014755;28;20667;-69
2023/09/13 05:08:00;;;;;;;36.53;19.17;;;;;;;;;;5015630;28;20112;-69
2023/09/13 05:10:29;;;;;;;35.03;19.48;;;;;;;;;;5018363;28;20413;-69
2023/09/13 05:12:54;;;;;;;39.70;20.05;;;;;;;;;;5014643;28;20087;-69
2023/09/13 05:15:20;;;;;;;33.78;19.42;;;;;;;;;;5014801;28;20018;-69
2023/09/13 05:17:45;;;;;;;36.00;19.83;;;;;;;;;;5015007;28;20100;-69
2023/09/13 05:20:10;;;;;;;24.33;10.20;;;;;;;;;;5014405;28;20029;-69
2023/09/13 05:22:35;;;;;;;8.80;5.20;;;;;;;;;;5012567;28;20172;-69
2023/09/13 05:25:01;;;;;;;6.32;3.25;;;;;;;;;;5013925;28;20014;-70
2023/09/13 05:27:26;;;;;;;6.37;1.90;;;;;;;;;;5012765;28;20014;-69
2023/09/13 05:29:52;;;;;;;7.38;1.70;;;;;;;;;;5014024;28;20042;-69
2023/09/13 05:32:17;;;;;;;10.27;1.80;;;;;;;;;;5014314;28;20089;-70
2023/09/13 05:34:43;;;;;;;7.80;1.70;;;;;;;;;;5014062;28;20060;-69
2023/09/13 05:37:08;;;;;;;5.67;1.40;;;;;;;;;;5012763;28;20022;-69
2023/09/13 05:39:33;;;;;;;4.23;1.20;;;;;;;;;;5012461;28;20378;-69
2023/09/13 05:42:01;;;;;;;6.37;1.10;;;;;;;;;;5021061;28;20252;-70
2023/09/13 05:44:26;;;;;;;5.25;1.30;;;;;;;;;;5034089;28;20018;-69
2023/09/13 05:46:54;;;;;;;4.13;1.27;;;;;;;;;;5034566;28;20074;-70
2023/09/13 05:49:20;;;;;;;5.03;1.30;;;;;;;;;;5035231;28;20472;-69
2023/09/13 05:51:48;;;;;;;6.75;1.65;;;;;;;;;;5035087;28;20010;-69
2023/09/13 05:54:13;;;;;;;6.47;1.20;;;;;;;;;;5035486;28;20037;-70
2023/09/13 05:56:39;;;;;;;3.42;1.20;;;;;;;;;;5035901;28;20006;-70
2023/09/13 05:59:04;;;;;;;2.70;0.65;;;;;;;;;;5036849;28;20061;-68
2023/09/13 06:01:30;;;;;;;2.33;1.00;;;;;;;;;;5037207;28;20026;-69
2023/09/13 06:03:55;;;;;;;3.17;1.00;;;;;;;;;;5036593;28;20014;-70
2023/09/13 06:06:20;;;;;;;3.33;0.90;;;;;;;;;;5037693;28;20022;-70
2023/09/13 06:08:45;;;;;;;2.65;0.90;;;;;;;;;;5037571;28;20265;-70
2023/09/13 06:11:11;;;;;;;3.83;0.90;;;;;;;;;;5038014;28;20034;-69
2023/09/13 06:13:36;;;;;;;5.03;1.15;;;;;;;;;;5041564;28;20018;-70
2023/09/13 06:16:01;;;;;;;3.28;1.25;;;;;;;;;;5042150;28;20010;-71
2023/09/13 06:18:26;;;;;;;3.90;1.40;;;;;;;;;;5042006;28;20054;-70
2023/09/13 06:20:51;;;;;;;4.33;1.37;;;;;;;;;;5042305;28;20065;-71
2023/09/13 06:23:37;;;;;;;4.63;1.40;;;;;;;;;;5042094;28;20065;-72
2023/09/13 06:26:02;;;;;;;3.00;1.13;;;;;;;;;;5028296;28;20026;-71
2023/09/13 06:28:28;;;;;;;4.28;1.27;;;;;;;;;;5021387;28;20022;-70
2023/09/13 06:30:53;;;;;;;3.60;1.50;;;;;;;;;;5020630;28;20397;-70
2023/09/13 06:33:18;;;;;;;3.25;1.40;;;;;;;;;;5020416;28;20465;-69
2023/09/13 06:35:44;;;;;;;4.72;1.60;;;;;;;;;;5017983;28;20022;-69
2023/09/13 06:38:10;;;;;;;4.47;1.47;;;;;;;;;;5018230;28;20481;-70
2023/09/13 06:40:37;;;;;;;7.03;1.75;;;;;;;;;;5016871;28;20269;-69
2023/09/13 06:43:03;;;;;;;4.68;1.80;;;;;;;;;;5017413;28;20014;-70
2023/09/13 06:45:28;;;;;;;6.88;1.90;;;;;;;;;;5016615;28;20492;-70
2023/09/13 06:47:53;;;;;;;4.17;1.77;;;;;;;;;;5017349;28;20022;-70
2023/09/13 06:50:18;;;;;;;4.53;1.75;;;;;;;;;;5017060;28;20277;-70
2023/09/13 06:52:43;;;;;;;6.10;2.30;;;;;;;;;;5015745;28;20018;-70
2023/09/13 06:55:09;;;;;;;5.13;1.97;;;;;;;;;;5016768;28;20267;-70
2023/09/13 06:57:34;;;;;;;6.87;1.90;;;;;;;;;;5016667;28;20264;-69
2023/09/13 07:00:00;;;;;;;4.70;1.90;;;;;;;;;;5015674;28;20810;-69
2023/09/13 07:02:25;;;;;;;9.73;2.30;;;;;;;;;;5016556;28;20025;-70
2023/09/13 07:04:51;;;;;;;4.93;1.97;;;;;;;;;;5016618;28;20396;-71
2023/09/13 07:07:16;;;;;;;4.60;1.80;;;;;;;;;;5016533;28;20260;-69
2023/09/13 07:09:42;;;;;;;5.10;1.80;;;;;;;;;;5016362;28;20368;-69
2023/09/13 07:12:07;;;;;;;4.85;1.80;;;;;;;;;;5014994;28;20034;-69
2023/09/13 07:14:32;;;;;;;6.60;1.90;;;;;;;;;;5016224;28;20018;-69
2023/09/13 07:16:57;;;;;;;4.30;1.63;;;;;;;;;;5016244;28;20264;-69
2023/09/13 07:19:22;;;;;;;4.40;1.60;;;;;;;;;;5014755;28;20046;-69
2023/09/13 07:21:49;;;;;;;3.87;1.50;;;;;;;;;;5016218;28;20021;-69
2023/09/13 07:24:15;;;;;;;3.92;1.77;;;;;;;;;;5015253;28;20025;-69
2023/09/13 07:26:40;;;;;;;5.80;1.80;;;;;;;;;;5016091;28;20018;-70
2023/09/13 07:29:06;;;;;;;4.35;1.60;;;;;;;;;;5014538;28;20491;-69
2023/09/13 07:31:31;;;;;;;5.47;1.80;;;;;;;;;;5016082;28;20072;-69
2023/09/13 07:33:56;;;;;;;4.30;1.43;;;;;;;;;;5015718;28;20021;-69
2023/09/13 07:36:23;;;;;;;5.17;1.80;;;;;;;;;;5015814;28;20296;-70
2023/09/13 07:38:48;;;;;;;3.05;1.45;;;;;;;;;;5015583;28;20366;-70
2023/09/13 07:41:13;;;;;;;2.83;1.40;;;;;;;;;;5015788;28;20084;-70
2023/09/13 07:43:38;;;;;;;5.20;1.60;;;;;;;;;;5015630;28;20022;-70
2023/09/13 07:46:04;;;;;;;3.37;1.40;;;;;;;;;;5015699;28;20022;-70
2023/09/13 07:48:29;;;;;;;3.45;1.63;;;;;;;;;;5015647;28;20022;-71
2023/09/13 07:50:54;;;;;;;3.73;1.77;;;;;;;;;;5015491;28;20033;-70
2023/09/13 07:53:19;;;;;;;3.97;1.70;;;;;;;;;;5015455;28;20096;-71
2023/09/13 07:55:45;;;;;;;4.20;1.70;;;;;;;;;;5014179;28;20261;-70
2023/09/13 07:58:10;;;;;;;4.05;1.85;;;;;;;;;;5015509;28;20125;-70
2023/09/13 08:00:36;;;;;;;4.77;1.97;;;;;;;;;;5015102;28;20014;-71
2023/09/13 08:03:02;;;;;;;3.55;1.70;;;;;;;;;;5015206;28;20478;-71
2023/09/13 08:05:27;;;;;;;3.67;1.80;;;;;;;;;;5015197;28;20100;-71
2023/09/13 08:07:53;;;;;;;5.13;2.00;;;;;;;;;;5015086;28;20050;-71
2023/09/13 08:10:18;;;;;;;4.43;1.70;;;;;;;;;;5013838;28;20111;-71
2023/09/13 08:12:43;;;;;;;5.80;1.90;;;;;;;;;;5015451;28;20072;-70
2023/09/13 08:15:09;;;;;;;3.93;1.73;;;;;;;;;;5015149;28;20025;-70
2023/09/13 08:17:34;;;;;;;6.47;2.00;;;;;;;;;;5015113;28;20403;-69
2023/09/13 08:20:00;;;;;;;7.50;1.93;;;;;;;;;;5016123;28;20469;-70
2023/09/13 08:22:25;;;;;;;4.78;2.00;;;;;;;;;;5015219;28;20256;-70
2023/09/13 08:24:50;;;;;;;8.23;2.07;;;;;;;;;;5015216;28;20017;-70
2023/09/13 08:27:15;;;;;;;5.50;2.00;;;;;;;;;;5013730;28;20288;-70
2023/09/13 08:29:40;;;;;;;5.40;1.90;;;;;;;;;;5014725;28;20362;-70
2023/09/13 08:32:06;;;;;;;7.17;2.30;;;;;;;;;;5014655;28;20026;-70
2023/09/13 08:34:33;;;;;;;8.23;2.33;;;;;;;;;;5014185;28;20026;-69
2023/09/13 08:36:58;;;;;;;8.02;2.28;;;;;;;;;;5014743;28;20052;-70
2023/09/13 08:39:23;;;;;;;7.60;2.20;;;;;;;;;;5013177;28;20049;-70
2023/09/13 08:41:52;;;;;;;6.73;2.37;;;;;;;;;;5014519;28;20381;-70
2023/09/13 08:44:20;;;;;;;4.63;2.00;;;;;;;;;;5013410;28;20018;-69
2023/09/13 08:46:45;;;;;;;5.78;1.90;;;;;;;;;;5014423;28;20041;-70
2023/09/13 08:49:10;;;;;;;6.78;2.20;;;;;;;;;;5014606;28;20022;-70
2023/09/13 08:51:36;;;;;;;5.90;2.00;;;;;;;;;;5014671;28;20018;-70
2023/09/13 08:54:02;;;;;;;5.35;2.25;;;;;;;;;;5013436;28;20265;-70
2023/09/13 08:56:28;;;;;;;5.97;2.13;;;;;;;;;;5017204;28;20113;-69
2023/09/13 08:58:54;;;;;;;6.60;2.10;;;;;;;;;;5013993;28;20030;-69
2023/09/13 09:01:20;;;;;;;5.38;2.00;;;;;;;;;;5014984;28;20060;-70
2023/09/13 09:03:47;;;;;;;6.05;2.10;;;;;;;;;;5013562;28;20079;-71
2023/09/13 09:06:17;;;;;;;6.78;2.10;;;;;;;;;;5012061;28;20108;-70
2023/09/13 09:08:43;;;;;;;5.45;2.50;;;;;;;;;;5013573;28;20018;-71
2023/09/13 09:11:09;;;;;;;5.40;2.17;;;;;;;;;;5012880;28;20024;-70
2023/09/13 09:13:36;;;;;;;10.43;2.35;;;;;;;;;;5011628;28;20025;-71
2023/09/13 09:16:03;;;;;;;5.57;2.10;;;;;;;;;;5013049;28;20034;-71
2023/09/13 09:18:30;;;;;;;7.35;2.47;;;;;;;;;;5013029;28;20050;-71
2023/09/13 09:20:56;;;;;;;7.55;2.28;;;;;;;;;;5014074;28;20045;-70
2023/09/13 09:23:23;;;;;;;10.50;2.45;;;;;;;;;;5014968;28;20014;-71
2023/09/13 09:25:50;;;;;;;5.70;2.10;;;;;;;;;;5015358;28;20021;-69
2023/09/13 09:28:15;;;;;;;9.27;2.50;;;;;;;;;;5015095;28;20493;-71
2023/09/13 09:30:40;;;;;;;4.80;2.17;;;;;;;;;;5015221;28;20018;-70
2023/09/13 09:33:06;;;;;;;10.10;2.50;;;;;;;;;;5015013;28;20179;-70
2023/09/13 09:35:31;;;;;;;8.60;2.30;;;;;;;;;;5015203;28;20029;-70
2023/09/13 09:37:57;;;;;;;8.75;2.40;;;;;;;;;;5013648;28;20130;-70
2023/09/13 09:40:22;;;;;;;8.53;2.53;;;;;;;;;;5013768;28;20477;-70
2023/09/13 09:42:54;;;;;;;8.50;2.23;;;;;;;;;;5014982;28;20018;-70
2023/09/13 09:45:19;;;;;;;5.90;2.38;;;;;;;;;;5013350;28;20477;-70
2023/09/13 09:47:45;;;;;;;7.80;2.35;;;;;;;;;;5015123;28;20022;-70
2023/09/13 09:50:13;;;;;;;6.28;2.30;;;;;;;;;;5014544;28;20526;-71
2023/09/13 09:52:38;;;;;;;6.03;1.98;;;;;;;;;;5014798;28;20066;-70
2023/09/13 09:55:04;;;;;;;6.10;2.30;;;;;;;;;;5014706;28;20379;-71
2023/09/13 09:57:29;;;;;;;8.23;2.40;;;;;;;;;;5013362;28;20786;-70
2023/09/13 09:59:55;;;;;;;7.82;2.40;;;;;;;;;;5014447;28;20021;-70
2023/09/13 10:02:27;;;;;;;7.47;2.20;;;;;;;;;;5014733;28;20029;-70
2023/09/13 10:04:52;;;;;;;5.03;2.00;;;;;;;;;;5014594;28;20028;-70
2023/09/13 10:07:17;;;;;;;4.40;1.83;;;;;;;;;;5013354;28;20022;-70
2023/09/13 10:09:43;;;;;;;8.97;2.17;;;;;;;;;;5013572;28;20033;-69
2023/09/13 10:12:09;;;;;;;5.85;2.05;;;;;;;;;;5017434;28;20257;-70
2023/09/13 10:14:35;;;;;;;5.80;1.67;;;;;;;;;;5014820;28;20022;-70
2023/09/13 10:17:02;;;;;;;8.93;1.83;;;;;;;;;;5015289;28;20026;-70
2023/09/13 10:19:29;;;;;;;5.15;1.80;;;;;;;;;;5015836;28;20053;-71
2023/09/13 10:21:55;;;;;;;5.85;1.70;;;;;;;;;;5015754;28;20029;-71
2023/09/13 10:24:21;;;;;;;5.72;1.60;;;;;;;;;;5014859;28;20018;-68
2023/09/13 10:26:46;;;;;;;3.47;1.48;;;;;;;;;;5015901;28;20041;-71
2023/09/13 10:29:20;;;;;;;3.50;1.27;;;;;;;;;;5015389;28;20037;-70
2023/09/13 10:31:46;;;;;;;4.00;1.70;;;;;;;;;;5014148;28;20625;-71
2023/09/13 10:34:26;;;;;;;10.25;2.45;;;;;;;;;;5014183;28;20021;-71
2023/09/13 10:37:10;;;;;;;7.95;1.88;;;;;;;;;;5013558;28;20017;-71
2023/09/13 10:39:42;;;;;;;9.63;2.50;;;;;;;;;;5013878;28;20026;-71
2023/09/13 10:42:07;;;;;;;8.90;2.50;;;;;;;;;;5012858;28;20080;-71
2023/09/13 10:44:38;;;;;;;10.98;2.53;;;;;;;;;;5013928;28;20014;-70
2023/09/13 10:47:04;;;;;;;11.35;2.50;;;;;;;;;;5012889;28;20590;-71
2023/09/13 10:49:29;;;;;;;10.95;2.63;;;;;;;;;;5013147;28;20281;-71
2023/09/13 10:51:58;;;;;;;9.50;2.40;;;;;;;;;;5015104;28;20449;-72
2023/09/13 10:54:24;;;;;;;7.90;2.25;;;;;;;;;;5012981;28;20029;-71
2023/09/13 10:56:49;;;;;;;9.07;2.58;;;;;;;;;;5013128;28;20025;-71
2023/09/13 10:59:17;;;;;;;12.07;2.83;;;;;;;;;;5015368;28;20061;-71
2023/09/13 11:01:46;;;;;;;9.77;2.50;;;;;;;;;;5016304;28;20021;-71
2023/09/13 11:04:11;;;;;;;6.82;2.35;;;;;;;;;;5014960;28;20092;-72
2023/09/13 11:06:37;;;;;;;10.10;2.20;;;;;;;;;;5016452;28;20057;-72
2023/09/13 11:09:10;;;;;;;6.15;2.10;;;;;;;;;;5017545;28;20054;-70
2023/09/13 11:11:35;;;;;;;11.50;2.38;;;;;;;;;;5017729;28;20022;-71
2023/09/13 11:14:06;;;;;;;4.78;2.25;;;;;;;;;;5014610;28;20157;-71
2023/09/13 11:16:31;;;;;;;5.55;2.05;;;;;;;;;;5015729;28;20026;-71
2023/09/13 11:18:57;;;;;;;5.50;2.00;;;;;;;;;;5015502;28;20065;-72
2023/09/13 11:21:26;;;;;;;6.53;2.17;;;;;;;;;;5015996;28;20390;-71
2023/09/13 11:23:52;;;;;;;7.78;2.15;;;;;;;;;;5015590;28;20492;-71
2023/09/13 11:26:37;;;;;;;6.75;2.42;;;;;;;;;;5014800;28;20018;-71
2023/09/13 11:29:19;;;;;;;4.72;2.15;;;;;;;;;;5014692;28;20084;-71
2023/09/13 11:32:00;;;;;;;5.30;2.60;;;;;;;;;;5016242;28;20461;-72
2023/09/13 11:34:26;;;;;;;7.03;2.60;;;;;;;;;;5014810;28;20028;-71
2023/09/13 11:36:56;;;;;;;6.68;2.90;;;;;;;;;;5014538;28;20108;-72
2023/09/13 11:39:21;;;;;;;4.35;2.78;;;;;;;;;;5014652;28;20026;-71
2023/09/13 11:41:47;;;;;;;4.30;2.70;;;;;;;;;;5016643;28;20180;-71
2023/09/13 11:44:12;;;;;;;5.43;2.85;;;;;;;;;;5018252;28;20372;-71
2023/09/13 11:46:37;;;;;;;5.50;2.93;;;;;;;;;;5028187;28;20040;-70
2023/09/13 11:49:03;;;;;;;4.95;2.95;;;;;;;;;;5014535;28;20461;-71
2023/09/13 11:51:30;;;;;;;4.88;2.63;;;;;;;;;;5015508;28;20018;-71
2023/09/13 11:53:55;;;;;;;7.30;3.05;;;;;;;;;;5015902;28;20101;-71
2023/09/13 11:56:47;;;;;;;6.97;3.15;;;;;;;;;;5016086;28;20046;-70
2023/09/13 11:59:12;;;;;;;5.18;3.28;;;;;;;;;;5011985;28;20026;-70
2023/09/13 12:01:48;;;;;;;6.05;3.65;;;;;;;;;;5015293;28;20022;-70
2023/09/13 12:04:13;;;;;;;5.60;3.38;;;;;;;;;;5015379;28;20437;-70
2023/09/13 12:06:42;;;;;;;6.33;3.23;;;;;;;;;;5013890;28;20014;-70
2023/09/13 12:09:25;;;;;;;7.63;3.30;;;;;;;;;;5014654;28;20269;-70
2023/09/13 12:11:51;;;;;;;8.00;3.28;;;;;;;;;;5014831;28;20099;-70
2023/09/13 12:14:17;;;;;;;5.05;3.10;;;;;;;;;;5012906;28;20085;-71
2023/09/13 12:16:42;;;;;;;5.30;3.10;;;;;;;;;;5013863;28;20101;-71
2023/09/13 12:19:10;;;;;;;6.87;3.40;;;;;;;;;;5014344;28;20184;-69
2023/09/13 12:21:35;;;;;;;8.05;3.50;;;;;;;;;;5015314;28;20693;-70
2023/09/13 12:24:00;;;;;;;8.70;3.17;;;;;;;;;;5014968;28;20021;-70
2023/09/13 12:26:27;;;;;;;4.63;3.10;;;;;;;;;;5013381;28;20048;-70
2023/09/13 12:28:53;;;;;;;8.05;3.03;;;;;;;;;;5014792;28;20275;-69
2023/09/13 12:31:19;;;;;;;5.80;3.08;;;;;;;;;;5013466;28;20466;-69
2023/09/13 12:33:49;;;;;;;5.25;3.00;;;;;;;;;;5013322;28;20048;-70
2023/09/13 12:36:16;;;;;;;7.32;2.90;;;;;;;;;;5014645;28;20081;-70
2023/09/13 12:38:41;;;;;;;5.35;3.00;;;;;;;;;;5013228;28;20028;-71
2023/09/13 12:41:06;;;;;;;6.85;2.83;;;;;;;;;;5014660;28;20050;-69
2023/09/13 12:43:35;;;;;;;12.38;2.90;;;;;;;;;;5013260;28;20022;-69
2023/09/13 12:46:00;;;;;;;9.77;3.08;;;;;;;;;;5014442;28;20527;-70
2023/09/13 12:48:25;;;;;;;9.52;3.00;;;;;;;;;;5014660;28;20018;-70
2023/09/13 12:50:51;;;;;;;5.17;2.53;;;;;;;;;;5013019;28;20018;-69
2023/09/13 12:53:16;;;;;;;4.72;2.63;;;;;;;;;;5014119;28;20644;-69
2023/09/13 12:55:42;;;;;;;5.43;2.60;;;;;;;;;;5014237;28;20021;-69
2023/09/13 12:58:07;;;;;;;5.63;2.58;;;;;;;;;;5014243;28;20283;-69
2023/09/13 13:00:46;;;;;;;4.73;2.70;;;;;;;;;;5014193;28;20382;-69
2023/09/13 13:03:11;;;;;;;6.57;3.00;;;;;;;;;;5014205;28;20018;-70
2023/09/13 13:05:41;;;;;;;5.20;2.90;;;;;;;;;;5012893;28;20132;-70
2023/09/13 13:08:06;;;;;;;5.32;2.72;;;;;;;;;;5013896;28;20152;-70
2023/09/13 13:10:31;;;;;;;8.50;2.70;;;;;;;;;;5014275;28;20018;-69
2023/09/13 13:12:57;;;;;;;7.07;3.10;;;;;;;;;;5014347;28;20026;-69
2023/09/13 13:15:28;;;;;;;7.60;3.10;;;;;;;;;;5015792;28;20264;-70
2023/09/13 13:17:54;;;;;;;4.72;2.75;;;;;;;;;;5014639;28;20041;-70
2023/09/13 13:20:19;;;;;;;6.17;3.03;;;;;;;;;;5014071;28;20068;-70
2023/09/13 13:22:44;;;;;;;5.00;2.63;;;;;;;;;;5013552;28;20126;-70
2023/09/13 13:25:09;;;;;;;5.43;2.88;;;;;;;;;;5012638;28;20022;-70
2023/09/13 13:27:35;;;;;;;7.40;3.00;;;;;;;;;;5013841;28;20384;-69
2023/09/13 13:30:00;;;;;;;4.03;2.40;;;;;;;;;;5012472;28;20044;-69
2023/09/13 13:32:25;;;;;;;7.33;3.00;;;;;;;;;;5012808;28;20021;-69
2023/09/13 13:34:50;;;;;;;7.20;2.90;;;;;;;;;;5013754;28;20046;-69
2023/09/13 13:37:16;;;;;;;5.72;2.78;;;;;;;;;;5013379;28;20899;-70
2023/09/13 13:39:41;;;;;;;5.60;2.90;;;;;;;;;;5013469;28;20056;-70
2023/09/13 13:42:06;;;;;;;6.90;2.60;;;;;;;;;;5012377;28;20025;-69
2023/09/13 13:44:34;;;;;;;6.40;2.60;;;;;;;;;;5012340;28;20269;-70
2023/09/13 13:46:59;;;;;;;4.95;2.70;;;;;;;;;;5013701;28;20389;-70
2023/09/13 13:49:24;;;;;;;5.23;2.70;;;;;;;;;;5012046;28;20026;-71
2023/09/13 13:51:49;;;;;;;4.70;2.83;;;;;;;;;;5011586;28;20022;-71
2023/09/13 13:54:15;;;;;;;6.57;2.83;;;;;;;;;;5011745;28;20268;-71
2023/09/13 13:56:41;;;;;;;6.15;2.75;;;;;;;;;;5009015;28;20065;-70
2023/09/13 13:59:09;;;;;;;8.88;2.80;;;;;;;;;;5010624;28;20026;-69
2023/09/13 14:01:34;;;;;;;5.55;3.00;;;;;;;;;;5010944;28;20022;-70
2023/09/13 14:03:59;;;;;;;7.72;2.70;;;;;;;;;;5011699;28;20164;-69
2023/09/13 14:06:25;;;;;;;5.87;2.60;;;;;;;;;;5011843;28;20068;-69
2023/09/13 14:08:50;;;;;;;5.07;2.47;;;;;;;;;;5013343;28;20136;-69
2023/09/13 14:11:15;;;;;;;6.40;2.57;;;;;;;;;;5011061;28;20757;-70
2023/09/13 14:13:40;;;;;;;5.28;2.35;;;;;;;;;;5010026;28;20029;-70
2023/09/13 14:16:05;;;;;;;7.23;2.70;;;;;;;;;;5011428;28;20022;-70
2023/09/13 14:18:30;;;;;;;5.93;2.40;;;;;;;;;;5011204;28;20045;-69
2023/09/13 14:20:56;;;;;;;7.73;2.97;;;;;;;;;;5011626;28;20498;-70
2023/09/13 14:23:22;;;;;;;6.27;2.37;;;;;;;;;;5008938;28;20289;-70
2023/09/13 14:25:47;;;;;;;6.57;2.60;;;;;;;;;;5010641;28;20339;-70
2023/09/13 14:28:12;;;;;;;6.97;2.60;;;;;;;;;;5012623;28;20057;-70
2023/09/13 14:30:38;;;;;;;7.67;2.67;;;;;;;;;;5010770;28;20487;-70
2023/09/13 14:33:04;;;;;;;5.50;2.40;;;;;;;;;;5012712;28;20815;-69